createdAt,value
2022-08-27T00:00:54.107Z,100619.44
2022-08-27T00:03:23.583Z,100598.16
2022-08-27T00:05:53.013Z,100622.25
2022-08-27T00:08:21.597Z,100623.88
2022-08-27T00:10:51.521Z,100623.03
2022-08-27T00:13:21.115Z,100617.25
2022-08-27T00:15:50.677Z,100250.25
2022-08-27T00:18:22.599Z,100629.66
2022-08-27T00:20:52.319Z,100511.06
2022-08-27T00:23:22.813Z,100573.38
2022-08-27T00:25:54.411Z,100557.31
2022-08-27T00:28:27.159Z,100559.06
2022-08-27T00:30:57.352Z,100616.59
2022-08-27T00:33:26.495Z,100538.69
2022-08-27T00:35:56.668Z,100597.06
2022-08-27T00:38:25.519Z,100624.59
2022-08-27T00:40:55.529Z,100624.22
2022-08-27T00:43:27.343Z,100356.50
2022-08-27T00:46:03.508Z,100626.25
2022-08-27T00:48:36.292Z,100510.75
2022-08-27T00:51:08.151Z,100616.25
2022-08-27T00:53:37.639Z,100615.03
2022-08-27T00:56:11.960Z,100487.22
2022-08-27T00:58:44.389Z,100612.38
2022-08-27T01:01:16.297Z,100555.03
2022-08-27T01:03:49.724Z,100611.31
2022-08-27T01:06:22.074Z,100359.13
2022-08-27T01:08:56.556Z,100620.78
2022-08-27T01:11:30.007Z,100623.53
2022-08-27T01:14:01.402Z,100617.88
2022-08-27T01:16:37.047Z,100617.28
2022-08-27T01:19:11.108Z,100606.06
2022-08-27T01:21:48.785Z,100613.53
2022-08-27T01:24:31.324Z,100609.47
2022-08-27T01:27:01.260Z,100604.13
2022-08-27T01:29:31.589Z,100610.19
2022-08-27T01:32:06.917Z,100601.56
2022-08-27T01:34:38.579Z,100593.47
2022-08-27T01:37:07.569Z,100571.41
2022-08-27T01:39:40.787Z,100595.13
2022-08-27T01:42:11.993Z,100543.41
2022-08-27T01:44:50.609Z,100592.97
2022-08-27T01:47:20.965Z,100594.91
2022-08-27T01:49:51.188Z,100341.94
2022-08-27T01:52:24.492Z,100592.69
2022-08-27T01:54:57.511Z,100597.13
2022-08-27T01:57:33.731Z,100481.78
2022-08-27T02:00:03.666Z,100597.81
2022-08-27T02:02:46.546Z,100523.66
2022-08-27T02:05:16.884Z,100602.44
2022-08-27T02:07:46.133Z,100112.97
2022-08-27T02:10:20.100Z,100597.03
2022-08-27T02:12:49.630Z,100567.00
2022-08-27T02:15:19.669Z,100578.00
2022-08-27T02:17:52.208Z,100594.91
2022-08-27T02:20:24.668Z,100580.28
2022-08-27T02:22:58.046Z,100586.22
2022-08-27T02:25:30.724Z,100447.47
2022-08-27T02:28:01.454Z,100587.91
2022-08-27T02:30:32.224Z,100599.41
2022-08-27T02:33:01.163Z,100585.41
2022-08-27T02:35:32.983Z,100455.38
2022-08-27T02:38:03.512Z,100548.13
2022-08-27T02:40:33.717Z,100575.78
2022-08-27T02:43:03.232Z,100593.84
2022-08-27T02:45:31.844Z,100439.41
2022-08-27T02:48:01.408Z,100327.59
2022-08-27T02:50:30.530Z,100503.81
2022-08-27T02:53:00.271Z,100419.03
2022-08-27T02:55:28.899Z,100575.50
2022-08-27T02:58:03.802Z,100513.84
2022-08-27T03:00:33.743Z,100326.97
2022-08-27T03:03:04.043Z,100546.41
2022-08-27T03:05:33.691Z,100488.94
2022-08-27T03:08:10.137Z,100522.84
2022-08-27T03:10:40.296Z,100570.41
2022-08-27T03:13:15.093Z,100568.56
2022-08-27T03:15:44.902Z,100253.06
2022-08-27T03:18:20.224Z,100572.75
2022-08-27T03:20:50.988Z,100581.50
2022-08-27T03:23:22.624Z,100569.41
2022-08-27T03:25:54.138Z,100563.34
2022-08-27T03:28:25.967Z,100561.25
2022-08-27T03:31:00.647Z,100544.13
2022-08-27T03:33:31.569Z,100434.31
2022-08-27T03:36:01.697Z,100553.09
2022-08-27T03:38:30.283Z,100526.03
2022-08-27T03:40:58.984Z,100457.69
2022-08-27T03:43:33.295Z,100552.31
2022-08-27T03:46:06.339Z,100547.72
2022-08-27T03:48:36.825Z,100542.72
2022-08-27T03:51:08.121Z,100497.91
2022-08-27T03:53:38.348Z,100541.88
2022-08-27T03:56:13.059Z,100545.66
2022-08-27T03:58:44.059Z,100541.47
2022-08-27T04:01:13.995Z,100552.16
2022-08-27T04:03:43.561Z,100551.94
2022-08-27T04:06:12.103Z,100326.34
2022-08-27T04:08:41.567Z,100517.94
2022-08-27T04:11:10.554Z,100357.81
2022-08-27T04:13:39.093Z,100336.75
2022-08-27T04:16:10.094Z,100497.88
2022-08-27T04:18:39.027Z,100300.06
2022-08-27T04:21:13.051Z,100370.91
2022-08-27T04:23:42.987Z,100545.25
2022-08-27T04:26:12.585Z,100516.25
2022-08-27T04:28:41.491Z,100539.00
2022-08-27T04:31:13.093Z,100197.34
2022-08-27T04:33:50.842Z,100483.72
2022-08-27T04:36:22.270Z,100543.78
2022-08-27T04:38:51.847Z,100484.16
2022-08-27T04:41:21.680Z,100536.50
2022-08-27T04:43:53.250Z,100540.88
2022-08-27T04:46:29.251Z,100560.28
2022-08-27T04:49:01.644Z,100549.44
2022-08-27T04:51:31.629Z,100546.72
2022-08-27T04:54:03.717Z,100549.22
2022-08-27T04:56:32.743Z,100379.00
2022-08-27T04:59:04.140Z,100562.78
2022-08-27T05:01:34.343Z,100214.56
2022-08-27T05:04:05.877Z,100389.84
2022-08-27T05:06:36.741Z,100562.53
2022-08-27T05:09:07.070Z,100558.97
2022-08-27T05:11:36.634Z,100567.38
2022-08-27T05:14:05.953Z,100566.13
2022-08-27T05:16:37.965Z,100566.13
2022-08-27T05:19:08.548Z,100397.94
2022-08-27T05:21:40.346Z,100577.59
2022-08-27T05:24:10.357Z,100514.56
2022-08-27T05:26:39.878Z,100426.91
2022-08-27T05:29:08.459Z,100578.22
2022-08-27T05:31:41.508Z,100578.59
2022-08-27T05:34:11.328Z,100577.34
2022-08-27T05:36:44.238Z,100576.50
2022-08-27T05:39:19.063Z,100577.13
2022-08-27T05:41:47.511Z,100403.75
2022-08-27T05:44:40.673Z,100470.72
2022-08-27T05:47:07.804Z,100582.41
2022-08-27T05:49:36.370Z,100527.94
2022-08-27T05:52:10.141Z,100574.69
2022-08-27T05:54:39.868Z,100573.84
2022-08-27T05:57:10.077Z,100573.41
2022-08-27T05:59:55.980Z,100584.44
2022-08-27T06:02:26.816Z,100560.63
2022-08-27T06:04:56.506Z,100578.97
2022-08-27T06:07:25.070Z,100498.88
2022-08-27T06:09:54.641Z,100343.03
2022-08-27T06:12:27.938Z,100488.19
2022-08-27T06:14:58.251Z,100573.56
2022-08-27T06:17:30.431Z,100569.72
2022-08-27T06:20:00.149Z,100524.91
2022-08-27T06:22:28.752Z,100426.72
2022-08-27T06:24:57.798Z,100581.81
2022-08-27T06:27:26.438Z,100588.88
2022-08-27T06:29:55.075Z,100583.72
2022-08-27T06:32:24.255Z,100538.56
2022-08-27T06:34:54.210Z,100584.00
2022-08-27T06:37:22.706Z,100578.28
2022-08-27T06:39:52.930Z,100577.09
2022-08-27T06:42:22.439Z,100585.53
2022-08-27T06:44:55.155Z,100543.59
2022-08-27T06:47:24.980Z,100574.56
2022-08-27T06:49:55.667Z,100572.00
2022-08-27T06:52:24.212Z,100543.00
2022-08-27T06:54:52.797Z,100553.16
2022-08-27T06:57:24.790Z,100528.94
2022-08-27T06:59:54.360Z,100542.97
2022-08-27T07:02:23.381Z,100554.78
2022-08-27T07:04:56.492Z,100571.16
2022-08-27T07:07:32.561Z,100573.41
2022-08-27T07:10:05.844Z,100572.84
2022-08-27T07:12:34.219Z,100579.97
2022-08-27T07:15:03.119Z,100574.16
2022-08-27T07:17:34.430Z,100570.19
2022-08-27T07:20:07.489Z,100534.31
2022-08-27T07:22:37.007Z,100468.78
2022-08-27T07:25:06.163Z,100421.72
2022-08-27T07:27:35.763Z,100581.13
2022-08-27T07:30:06.123Z,100522.59
2022-08-27T07:32:35.950Z,100437.13
2022-08-27T07:35:09.588Z,100576.97
2022-08-27T07:37:38.536Z,100599.50
2022-08-27T07:40:11.865Z,100581.09
2022-08-27T07:43:01.908Z,100583.28
2022-08-27T07:45:32.548Z,100425.75
2022-08-27T07:48:02.532Z,100430.66
2022-08-27T07:50:35.242Z,100612.22
2022-08-27T07:53:04.812Z,100296.50
2022-08-27T07:55:38.735Z,100546.00
2022-08-27T07:58:16.849Z,100587.94
2022-08-27T08:00:50.993Z,100449.28
2022-08-27T08:03:30.355Z,100598.41
2022-08-27T08:06:06.552Z,100547.69
2022-08-27T08:08:45.601Z,100454.22
2022-08-27T08:11:17.078Z,100532.78
2022-08-27T08:13:48.823Z,100308.47
2022-08-27T08:16:18.221Z,100596.75
2022-08-27T08:18:52.841Z,100523.16
2022-08-27T08:21:42.917Z,100597.84
2022-08-27T08:24:12.651Z,100441.56
2022-08-27T08:26:42.268Z,100605.31
2022-08-27T08:29:18.190Z,100440.00
2022-08-27T08:31:54.309Z,100612.81
2022-08-27T08:34:25.112Z,100546.38
2022-08-27T08:36:57.249Z,100533.16
2022-08-27T08:39:28.081Z,100555.47
2022-08-27T08:42:00.401Z,100599.56
2022-08-27T08:44:37.287Z,100594.06
2022-08-27T08:47:09.746Z,100406.25
2022-08-27T08:49:51.277Z,100439.03
2022-08-27T08:52:39.127Z,100140.78
2022-08-27T08:55:16.676Z,100447.81
2022-08-27T08:57:50.964Z,100271.13
2022-08-27T09:00:35.332Z,100514.66
2022-08-27T09:03:04.459Z,100308.81
2022-08-27T09:05:33.357Z,100168.88
2022-08-27T09:08:33.032Z,100383.63
2022-08-27T09:11:12.145Z,100355.25
2022-08-27T09:13:45.065Z,100584.25
2022-08-27T09:16:14.944Z,100226.75
2022-08-27T09:18:45.367Z,100414.13
2022-08-27T09:21:28.451Z,100544.75
2022-08-27T09:24:15.405Z,100277.28
2022-08-27T09:26:49.208Z,100123.72
2022-08-27T09:29:22.856Z,100576.63
2022-08-27T09:32:02.559Z,100583.22
2022-08-27T09:34:37.148Z,100342.91
2022-08-27T09:37:09.408Z,100452.34
2022-08-27T09:39:50.231Z,100572.06
2022-08-27T09:42:32.111Z,100575.44
2022-08-27T09:45:08.245Z,100547.63
2022-08-27T09:47:46.859Z,100502.78
2022-08-27T09:50:21.051Z,100580.56
2022-08-27T09:52:55.587Z,100587.50
2022-08-27T09:55:43.155Z,100124.72
2022-08-27T09:58:23.473Z,100570.88
2022-08-27T10:01:02.493Z,100537.03
2022-08-27T10:03:33.519Z,100327.00
2022-08-27T10:06:03.550Z,100539.59
2022-08-27T10:08:39.204Z,100414.50
2022-08-27T10:11:17.701Z,100262.91
2022-08-27T10:13:54.741Z,100547.72
2022-08-27T10:16:53.404Z,100430.97
2022-08-27T10:19:39.620Z,100420.16
2022-08-27T10:22:16.559Z,100561.19
2022-08-27T10:25:02.058Z,100473.34
2022-08-27T10:27:41.570Z,100554.00
2022-08-27T10:30:14.216Z,100361.63
2022-08-27T10:33:03.866Z,100257.13
2022-08-27T10:35:37.469Z,100546.94
2022-08-27T10:38:22.379Z,100550.09
2022-08-27T10:40:57.871Z,100447.19
2022-08-27T10:43:46.607Z,100538.63
2022-08-27T10:46:33.640Z,100536.03
2022-08-27T10:49:15.841Z,100290.13
2022-08-27T10:51:59.040Z,100538.34
2022-08-27T10:54:37.643Z,100371.72
2022-08-27T10:57:31.672Z,100485.06
2022-08-27T11:00:12.319Z,100537.16
2022-08-27T11:02:45.670Z,100483.91
2022-08-27T11:05:21.033Z,100509.00
2022-08-27T11:07:55.477Z,100520.69
2022-08-27T11:10:30.999Z,100516.47
2022-08-27T11:13:07.260Z,100484.81
2022-08-27T11:15:44.161Z,100509.00
2022-08-27T11:18:18.784Z,100503.28
2022-08-27T11:20:54.687Z,100509.44
2022-08-27T11:23:28.626Z,100460.84
2022-08-27T11:26:02.299Z,100502.09
2022-08-27T11:28:37.804Z,100490.22
2022-08-27T11:31:16.311Z,100495.75
2022-08-27T11:33:53.669Z,100444.06
2022-08-27T11:36:54.109Z,100497.28
2022-08-27T11:39:41.095Z,100450.91
2022-08-27T11:42:15.482Z,100281.00
2022-08-27T11:44:46.876Z,100314.41
2022-08-27T11:47:22.283Z,100435.22
2022-08-27T11:49:54.649Z,100386.13
2022-08-27T11:52:29.372Z,100479.50
2022-08-27T11:55:12.887Z,100470.97
2022-08-27T11:57:41.518Z,100470.16
2022-08-27T12:00:19.407Z,100462.25
2022-08-27T12:03:00.790Z,100454.75
2022-08-27T12:05:41.782Z,100328.53
2022-08-27T12:08:27.893Z,100457.00
2022-08-27T12:11:14.690Z,100447.34
2022-08-27T12:13:52.607Z,100445.19
2022-08-27T12:16:30.957Z,100445.91
2022-08-27T12:19:21.250Z,100436.16
2022-08-27T12:22:06.436Z,100224.06
2022-08-27T12:24:50.504Z,100439.19
2022-08-27T12:27:32.458Z,100428.50
2022-08-27T12:30:05.501Z,100434.72
2022-08-27T12:32:41.245Z,100381.75
2022-08-27T12:35:21.245Z,100433.16
2022-08-27T12:37:57.836Z,100420.22
2022-08-27T12:40:31.376Z,100274.94
2022-08-27T12:43:10.367Z,100431.91
2022-08-27T12:45:47.112Z,100402.47
2022-08-27T12:48:18.790Z,100431.75
2022-08-27T12:50:53.506Z,100417.88
2022-08-27T12:53:47.249Z,100423.63
2022-08-27T12:56:49.980Z,100401.66
2022-08-27T12:59:41.869Z,100419.41
2022-08-27T13:02:24.710Z,100407.50
2022-08-27T13:04:54.361Z,100414.31
2022-08-27T13:07:37.760Z,100296.19
2022-08-27T13:10:12.055Z,100354.41
2022-08-27T13:12:40.548Z,100407.63
2022-08-27T13:15:10.765Z,100402.25
2022-08-27T13:17:46.013Z,100404.28
2022-08-27T13:20:20.598Z,100389.66
2022-08-27T13:22:57.085Z,100395.09
2022-08-27T13:25:30.971Z,100399.09
2022-08-27T13:28:08.008Z,100362.13
2022-08-27T13:30:39.312Z,100383.19
2022-08-27T13:33:10.833Z,100391.53
2022-08-27T13:35:42.674Z,100250.72
2022-08-27T13:38:13.378Z,100388.19
2022-08-27T13:40:55.426Z,100318.03
2022-08-27T13:43:33.248Z,100381.72
2022-08-27T13:46:05.716Z,100264.69
2022-08-27T13:48:35.217Z,100380.00
2022-08-27T13:51:04.246Z,100318.78
2022-08-27T13:53:52.967Z,100374.91
2022-08-27T13:56:27.210Z,100281.63
2022-08-27T13:58:56.034Z,100373.22
2022-08-27T14:01:30.267Z,100305.66
2022-08-27T14:04:04.375Z,100368.69
2022-08-27T14:06:42.883Z,100347.09
2022-08-27T14:09:19.282Z,100356.94
2022-08-27T14:11:48.473Z,100320.28
2022-08-27T14:14:19.766Z,100214.06
2022-08-27T14:16:58.500Z,100346.66
2022-08-27T14:19:29.303Z,100348.03
2022-08-27T14:22:04.162Z,100343.06
2022-08-27T14:24:34.085Z,100278.22
2022-08-27T14:27:07.326Z,100332.72
2022-08-27T14:29:36.153Z,100333.91
2022-08-27T14:32:07.760Z,100327.22
2022-08-27T14:34:36.467Z,100318.56
2022-08-27T14:37:05.503Z,100326.25
2022-08-27T14:39:35.767Z,100329.53
2022-08-27T14:42:05.703Z,100332.97
2022-08-27T14:44:34.538Z,100333.09
2022-08-27T14:47:03.341Z,100338.19
2022-08-27T14:49:35.738Z,100330.25
2022-08-27T14:52:06.981Z,100331.47
2022-08-27T14:54:38.698Z,100335.25
2022-08-27T14:57:08.468Z,100336.53
2022-08-27T14:59:38.336Z,100305.38
2022-08-27T15:02:11.404Z,100330.19
2022-08-27T15:04:39.979Z,100330.19
2022-08-27T15:07:10.834Z,100327.44
2022-08-27T15:09:40.747Z,100283.03
2022-08-27T15:12:15.068Z,100332.91
2022-08-27T15:14:55.311Z,100270.97
2022-08-27T15:17:34.299Z,100308.34
2022-08-27T15:20:06.971Z,100266.09
2022-08-27T15:22:36.506Z,100344.81
2022-08-27T15:25:08.978Z,100351.78
2022-08-27T15:27:39.197Z,100355.94
2022-08-27T15:30:10.922Z,100353.28
2022-08-27T15:32:42.584Z,100352.25
2022-08-27T15:35:14.146Z,100359.72
2022-08-27T15:37:43.781Z,100278.53
2022-08-27T15:40:17.191Z,100365.38
2022-08-27T15:42:46.382Z,100198.75
2022-08-27T15:45:16.119Z,100276.88
2022-08-27T15:47:44.647Z,100082.00
2022-08-27T15:50:13.156Z,100376.59
2022-08-27T15:52:43.468Z,100334.03
2022-08-27T15:55:21.275Z,100371.53
2022-08-27T15:57:50.010Z,100336.09
2022-08-27T16:00:20.334Z,100375.34
2022-08-27T16:02:49.875Z,100378.53
2022-08-27T16:05:19.403Z,100381.09
2022-08-27T16:07:48.212Z,100390.06
2022-08-27T16:10:19.267Z,100228.53
2022-08-27T16:12:47.897Z,100398.78
2022-08-27T16:15:17.512Z,100401.34
2022-08-27T16:17:46.824Z,100402.56
2022-08-27T16:20:17.418Z,100406.84
2022-08-27T16:22:46.467Z,100397.25
2022-08-27T16:25:18.451Z,100404.75
2022-08-27T16:27:49.629Z,100413.38
2022-08-27T16:30:18.979Z,100407.41
2022-08-27T16:32:49.438Z,100327.81
2022-08-27T16:35:18.504Z,100405.88
2022-08-27T16:37:47.055Z,100362.84
2022-08-27T16:40:16.279Z,100344.78
2022-08-27T16:42:48.847Z,100411.81
2022-08-27T16:45:22.755Z,100404.16
2022-08-27T16:48:09.285Z,100406.22
2022-08-27T16:50:38.433Z,100411.03
2022-08-27T16:53:09.179Z,100235.44
2022-08-27T16:55:39.295Z,100374.84
2022-08-27T16:58:13.490Z,100402.66
2022-08-27T17:00:45.098Z,100279.03
2022-08-27T17:03:14.975Z,100371.38
2022-08-27T17:05:43.701Z,100258.66
2022-08-27T17:08:13.638Z,100396.09
2022-08-27T17:10:45.835Z,100132.28
2022-08-27T17:13:17.036Z,100357.84
2022-08-27T17:15:52.581Z,100266.28
2022-08-27T17:18:22.660Z,100392.66
2022-08-27T17:20:52.422Z,100393.75
2022-08-27T17:23:24.850Z,100395.44
2022-08-27T17:25:53.458Z,100394.97
2022-08-27T17:28:21.969Z,100400.56
2022-08-27T17:30:52.097Z,100395.06
2022-08-27T17:33:24.380Z,100392.34
2022-08-27T17:35:53.028Z,100395.44
2022-08-27T17:38:21.459Z,100385.81
2022-08-27T17:40:52.217Z,100309.06
2022-08-27T17:43:21.754Z,100389.88
2022-08-27T17:45:52.545Z,100388.03
2022-08-27T17:48:26.040Z,100396.59
2022-08-27T17:50:55.369Z,100390.59
2022-08-27T17:53:24.135Z,100196.41
2022-08-27T17:55:52.727Z,100242.03
2022-08-27T17:58:21.493Z,100386.88
2022-08-27T18:00:52.163Z,100400.72
2022-08-27T18:03:21.740Z,100389.19
2022-08-27T18:05:50.618Z,100176.00
2022-08-27T18:08:20.572Z,100260.94
2022-08-27T18:10:49.571Z,100408.88
2022-08-27T18:13:19.648Z,100367.41
2022-08-27T18:16:02.267Z,100429.59
2022-08-27T18:18:30.868Z,100328.09
2022-08-27T18:20:59.826Z,100440.38
2022-08-27T18:23:29.889Z,100418.09
2022-08-27T18:26:00.155Z,100343.50
2022-08-27T18:28:29.157Z,100325.34
2022-08-27T18:30:59.749Z,100454.16
2022-08-27T18:33:32.457Z,100469.56
2022-08-27T18:36:07.789Z,100474.78
2022-08-27T18:38:36.672Z,100480.31
2022-08-27T18:41:05.328Z,100492.13
2022-08-27T18:43:37.940Z,100498.41
2022-08-27T18:46:08.722Z,100501.69
2022-08-27T18:48:37.604Z,100510.50
2022-08-27T18:51:08.135Z,100505.53
2022-08-27T18:53:40.594Z,100510.97
2022-08-27T18:56:10.581Z,100509.31
2022-08-27T18:58:40.207Z,100512.81
2022-08-27T19:01:14.369Z,100516.91
2022-08-27T19:03:46.194Z,100520.97
2022-08-27T19:06:18.128Z,100515.16
2022-08-27T19:08:47.557Z,100521.97
2022-08-27T19:11:16.438Z,100531.72
2022-08-27T19:13:45.003Z,100531.28
2022-08-27T19:16:24.207Z,100529.72
2022-08-27T19:18:53.562Z,100516.91
2022-08-27T19:21:24.844Z,100543.88
2022-08-27T19:23:54.171Z,100555.38
2022-08-27T19:26:25.490Z,100341.63
2022-08-27T19:28:54.676Z,100411.31
2022-08-27T19:31:24.670Z,100552.06
2022-08-27T19:33:53.487Z,100544.75
2022-08-27T19:36:23.768Z,100573.34
2022-08-27T19:38:58.178Z,100584.09
2022-08-27T19:41:28.041Z,100489.75
2022-08-27T19:43:56.618Z,100365.13
2022-08-27T19:46:27.615Z,100589.25
2022-08-27T19:48:58.105Z,100585.03
2022-08-27T19:51:26.714Z,100592.94
2022-08-27T19:53:55.328Z,100507.16
2022-08-27T19:56:23.837Z,100598.97
2022-08-27T19:58:56.665Z,100592.34
2022-08-27T20:01:28.787Z,100607.00
2022-08-27T20:03:59.086Z,100572.53
2022-08-27T20:06:30.052Z,100602.63
2022-08-27T20:08:58.779Z,100607.69
2022-08-27T20:11:27.547Z,100609.34
2022-08-27T20:13:56.402Z,100580.72
2022-08-27T20:16:24.959Z,100611.50
2022-08-27T20:18:59.659Z,100594.94
2022-08-27T20:21:29.418Z,100621.63
2022-08-27T20:23:57.946Z,100617.59
2022-08-27T20:26:26.481Z,100621.66
2022-08-27T20:28:54.930Z,100626.94
2022-08-27T20:31:23.993Z,100608.03
2022-08-27T20:33:52.799Z,100444.16
2022-08-27T20:36:28.398Z,100619.66
2022-08-27T20:38:57.089Z,100623.72
2022-08-27T20:41:25.707Z,100564.03
2022-08-27T20:43:54.775Z,100607.09
2022-08-27T20:46:25.793Z,100632.22
2022-08-27T20:48:56.557Z,100636.63
2022-08-27T20:51:27.281Z,100633.19
2022-08-27T20:53:56.567Z,100638.69
2022-08-27T20:56:25.217Z,100613.69
2022-08-27T20:59:10.891Z,100630.19
2022-08-27T21:01:39.664Z,100587.63
2022-08-27T21:04:08.054Z,100629.66
2022-08-27T21:06:37.925Z,100646.19
2022-08-27T21:09:06.626Z,100623.16
2022-08-27T21:11:35.220Z,100416.94
2022-08-27T21:14:03.698Z,100639.09
2022-08-27T21:16:34.930Z,100632.81
2022-08-27T21:19:03.410Z,100562.84
2022-08-27T21:21:32.075Z,100636.78
2022-08-27T21:24:02.470Z,100633.34
2022-08-27T21:26:32.133Z,100637.31
2022-08-27T21:29:00.614Z,100592.66
2022-08-27T21:31:29.618Z,100628.16
2022-08-27T21:33:58.243Z,100635.41
2022-08-27T21:36:26.777Z,100624.00
2022-08-27T21:38:55.514Z,100630.53
2022-08-27T21:41:26.349Z,100636.22
2022-08-27T21:43:55.026Z,100638.13
2022-08-27T21:46:24.055Z,100631.13
2022-08-27T21:48:59.105Z,100632.81
2022-08-27T21:51:28.151Z,100632.81
2022-08-27T21:53:56.558Z,100638.38
2022-08-27T21:56:26.533Z,100639.94
2022-08-27T21:58:57.399Z,100646.47
2022-08-27T22:01:28.945Z,100649.09
2022-08-27T22:03:57.648Z,100656.78
2022-08-27T22:06:27.466Z,100655.19
2022-08-27T22:08:56.006Z,100592.56
2022-08-27T22:11:26.227Z,100658.34
2022-08-27T22:13:55.113Z,100564.69
2022-08-27T22:16:23.878Z,100537.31
2022-08-27T22:18:54.754Z,100665.50
2022-08-27T22:21:24.187Z,100657.06
2022-08-27T22:23:53.568Z,100615.94
2022-08-27T22:26:22.900Z,100641.00
2022-08-27T22:28:52.818Z,100661.75
2022-08-27T22:31:21.559Z,100666.16
2022-08-27T22:33:50.116Z,100622.19
2022-08-27T22:36:19.871Z,100666.06
2022-08-27T22:38:48.434Z,100667.22
2022-08-27T22:41:18.571Z,100665.81
2022-08-27T22:43:47.567Z,100661.03
2022-08-27T22:46:19.052Z,100674.50
2022-08-27T22:48:50.175Z,100594.38
2022-08-27T22:51:22.801Z,100491.63
2022-08-27T22:55:45.653Z,100667.06
2022-08-27T22:58:16.453Z,100667.50
2022-08-27T23:00:52.147Z,100666.28
2022-08-27T23:03:21.422Z,100668.47
2022-08-27T23:05:49.809Z,100671.09
2022-08-27T23:08:18.323Z,100664.72
2022-08-27T23:10:47.972Z,100668.72
2022-08-27T23:13:16.380Z,100668.94
2022-08-27T23:15:44.675Z,100667.28
2022-08-27T23:18:13.236Z,100668.00
2022-08-27T23:20:41.667Z,100663.47
2022-08-27T23:23:10.284Z,100649.34
2022-08-27T23:25:56.426Z,100668.13
2022-08-27T23:28:26.136Z,100665.66
2022-08-27T23:30:54.649Z,100654.84
2022-08-27T23:33:23.285Z,100661.16
2022-08-27T23:35:51.952Z,100670.03
2022-08-27T23:38:21.344Z,100636.50
2022-08-27T23:40:51.289Z,100673.06
2022-08-27T23:43:20.968Z,100667.22
2022-08-27T23:45:52.112Z,100674.75
2022-08-27T23:48:21.093Z,100673.50
2022-08-27T23:50:49.629Z,100673.28
2022-08-27T23:53:17.927Z,100665.72
2022-08-27T23:55:46.224Z,100670.13
2022-08-27T23:58:14.952Z,100664.94
